aviador You're here:

CYPX Decoded Metar

PUVIRGNITUQ in QC, CANADA
Report Time2017-04-28 08:00:00
UTC Time2017-04-28 08:12:39
Flight Rules vfr VFR
Wind060° at 13 kt
W.Decomp.*RWY 01: 4.2 kt HW 12.3 kt RCW
W.Rank060° ranks 11
Current wind is above 060° avg. (10.4)
Visibility9999 m
Phenomena:N/A
Clouds:N/A
Expected CloudBase > 1,600 ft AGL from Temp-Dew spread
CeilingNone
Temp-14°C (ISA -29)
Dew Point-18°C (72% RH)
AAT-22.2°C
QNH1020 hPa
Density Alt-3,789 ft
Elevation75 ft
Report Wrong Elevation
Raw Report
CYPX 280800Z AUTO 06013KT 9SM CLR M14/M18 A3011 RMK SLP201=

Extra information for CYPX:More info

Metar Taf Metar & Taf Last 4 Metars F.Rules Stats Wind Profile Meteogram Temp Stats Airport Information Weather charts Add Link Nearby VenuesMetar ALERT Operation Metar Decoded Social comments